sensor_id;sensor_type;location;lat;lon;timestamp;P1;durP1;ratioP1;P2;durP2;ratioP2
17424;SDS011;8830;50.978;5.058;2022-11-20T00:01:17;17.63;;;14.73;;
17424;SDS011;8830;50.978;5.058;2022-11-20T00:03:45;19.73;;;14.90;;
17424;SDS011;8830;50.978;5.058;2022-11-20T00:06:16;19.30;;;15.00;;
17424;SDS011;8830;50.978;5.058;2022-11-20T00:08:44;19.33;;;15.27;;
17424;SDS011;8830;50.978;5.058;2022-11-20T00:11:12;19.07;;;15.07;;
17424;SDS011;8830;50.978;5.058;2022-11-20T00:13:40;18.83;;;15.20;;
17424;SDS011;8830;50.978;5.058;2022-11-20T00:16:09;22.93;;;15.17;;
17424;SDS011;8830;50.978;5.058;2022-11-20T00:18:36;20.93;;;15.70;;
17424;SDS011;8830;50.978;5.058;2022-11-20T00:21:04;20.67;;;15.63;;
17424;SDS011;8830;50.978;5.058;2022-11-20T00:23:34;18.73;;;14.47;;
17424;SDS011;8830;50.978;5.058;2022-11-20T00:26:01;18.53;;;15.03;;
17424;SDS011;8830;50.978;5.058;2022-11-20T00:28:29;19.63;;;15.17;;
17424;SDS011;8830;50.978;5.058;2022-11-20T00:31:06;19.67;;;15.80;;
17424;SDS011;8830;50.978;5.058;2022-11-20T00:33:35;20.27;;;16.10;;
17424;SDS011;8830;50.978;5.058;2022-11-20T00:36:03;22.10;;;16.80;;
17424;SDS011;8830;50.978;5.058;2022-11-20T00:38:31;20.60;;;15.67;;
17424;SDS011;8830;50.978;5.058;2022-11-20T00:41:00;18.07;;;14.87;;
17424;SDS011;8830;50.978;5.058;2022-11-20T00:43:29;21.10;;;16.23;;
17424;SDS011;8830;50.978;5.058;2022-11-20T00:45:57;21.63;;;15.30;;
17424;SDS011;8830;50.978;5.058;2022-11-20T00:48:24;19.20;;;15.57;;
17424;SDS011;8830;50.978;5.058;2022-11-20T00:50:52;21.77;;;16.20;;
17424;SDS011;8830;50.978;5.058;2022-11-20T00:53:20;21.60;;;15.97;;
17424;SDS011;8830;50.978;5.058;2022-11-20T00:55:54;18.20;;;15.93;;
17424;SDS011;8830;50.978;5.058;2022-11-20T00:58:23;19.30;;;15.70;;
17424;SDS011;8830;50.978;5.058;2022-11-20T01:00:51;22.17;;;16.07;;
17424;SDS011;8830;50.978;5.058;2022-11-20T01:03:25;20.43;;;16.30;;
17424;SDS011;8830;50.978;5.058;2022-11-20T01:05:52;21.60;;;16.30;;
17424;SDS011;8830;50.978;5.058;2022-11-20T01:08:19;19.37;;;15.87;;
17424;SDS011;8830;50.978;5.058;2022-11-20T01:10:46;19.23;;;15.23;;
17424;SDS011;8830;50.978;5.058;2022-11-20T01:13:13;19.83;;;16.07;;
17424;SDS011;8830;50.978;5.058;2022-11-20T01:16:02;20.77;;;16.17;;
17424;SDS011;8830;50.978;5.058;2022-11-20T01:18:33;19.50;;;15.30;;
17424;SDS011;8830;50.978;5.058;2022-11-20T01:21:01;19.40;;;16.10;;
17424;SDS011;8830;50.978;5.058;2022-11-20T01:23:32;20.77;;;15.63;;
17424;SDS011;8830;50.978;5.058;2022-11-20T01:26:01;20.90;;;15.60;;
17424;SDS011;8830;50.978;5.058;2022-11-20T01:28:37;20.13;;;15.23;;
17424;SDS011;8830;50.978;5.058;2022-11-20T01:31:11;17.47;;;14.77;;
17424;SDS011;8830;50.978;5.058;2022-11-20T01:33:39;21.67;;;16.53;;
17424;SDS011;8830;50.978;5.058;2022-11-20T01:36:07;20.27;;;16.00;;
17424;SDS011;8830;50.978;5.058;2022-11-20T01:38:35;23.07;;;16.23;;
17424;SDS011;8830;50.978;5.058;2022-11-20T01:41:02;22.67;;;16.30;;
17424;SDS011;8830;50.978;5.058;2022-11-20T01:43:29;20.57;;;16.13;;
17424;SDS011;8830;50.978;5.058;2022-11-20T01:46:14;25.30;;;17.83;;
17424;SDS011;8830;50.978;5.058;2022-11-20T01:48:44;25.00;;;17.57;;
17424;SDS011;8830;50.978;5.058;2022-11-20T01:51:21;20.60;;;17.43;;
17424;SDS011;8830;50.978;5.058;2022-11-20T01:53:53;29.47;;;19.10;;
17424;SDS011;8830;50.978;5.058;2022-11-20T01:56:23;28.53;;;17.77;;
17424;SDS011;8830;50.978;5.058;2022-11-20T01:58:51;27.13;;;19.53;;
17424;SDS011;8830;50.978;5.058;2022-11-20T02:01:24;24.97;;;18.33;;
17424;SDS011;8830;50.978;5.058;2022-11-20T02:03:51;26.50;;;18.93;;
17424;SDS011;8830;50.978;5.058;2022-11-20T02:06:19;26.33;;;19.57;;
17424;SDS011;8830;50.978;5.058;2022-11-20T02:08:50;27.13;;;18.87;;
17424;SDS011;8830;50.978;5.058;2022-11-20T02:11:17;28.80;;;19.57;;
17424;SDS011;8830;50.978;5.058;2022-11-20T02:13:45;26.60;;;18.43;;
17424;SDS011;8830;50.978;5.058;2022-11-20T02:16:12;24.63;;;18.63;;
17424;SDS011;8830;50.978;5.058;2022-11-20T02:18:44;24.93;;;16.67;;
17424;SDS011;8830;50.978;5.058;2022-11-20T02:21:19;25.40;;;17.90;;
17424;SDS011;8830;50.978;5.058;2022-11-20T02:24:04;28.50;;;18.27;;
17424;SDS011;8830;50.978;5.058;2022-11-20T02:26:34;26.00;;;18.47;;
17424;SDS011;8830;50.978;5.058;2022-11-20T02:29:05;26.13;;;17.30;;
17424;SDS011;8830;50.978;5.058;2022-11-20T02:31:36;29.23;;;19.23;;
17424;SDS011;8830;50.978;5.058;2022-11-20T02:34:05;23.77;;;16.80;;
17424;SDS011;8830;50.978;5.058;2022-11-20T02:36:32;22.87;;;17.07;;
17424;SDS011;8830;50.978;5.058;2022-11-20T02:39:01;31.10;;;18.23;;
17424;SDS011;8830;50.978;5.058;2022-11-20T02:41:37;26.40;;;18.87;;
17424;SDS011;8830;50.978;5.058;2022-11-20T02:44:08;22.23;;;17.17;;
17424;SDS011;8830;50.978;5.058;2022-11-20T02:46:35;23.40;;;17.30;;
17424;SDS011;8830;50.978;5.058;2022-11-20T02:49:02;25.30;;;17.70;;
17424;SDS011;8830;50.978;5.058;2022-11-20T02:51:29;21.47;;;16.73;;
17424;SDS011;8830;50.978;5.058;2022-11-20T02:53:57;24.47;;;17.23;;
17424;SDS011;8830;50.978;5.058;2022-11-20T02:56:25;20.50;;;16.50;;
17424;SDS011;8830;50.978;5.058;2022-11-20T02:58:53;22.47;;;17.17;;
17424;SDS011;8830;50.978;5.058;2022-11-20T03:01:21;21.70;;;16.90;;
17424;SDS011;8830;50.978;5.058;2022-11-20T03:03:48;21.03;;;15.97;;
17424;SDS011;8830;50.978;5.058;2022-11-20T03:06:15;21.93;;;16.90;;
17424;SDS011;8830;50.978;5.058;2022-11-20T03:08:42;19.13;;;15.67;;
17424;SDS011;8830;50.978;5.058;2022-11-20T03:11:09;20.93;;;16.67;;
17424;SDS011;8830;50.978;5.058;2022-11-20T03:13:36;21.80;;;16.23;;
17424;SDS011;8830;50.978;5.058;2022-11-20T03:16:09;19.33;;;16.07;;
17424;SDS011;8830;50.978;5.058;2022-11-20T03:18:37;19.50;;;15.80;;
17424;SDS011;8830;50.978;5.058;2022-11-20T03:21:04;19.17;;;16.70;;
17424;SDS011;8830;50.978;5.058;2022-11-20T03:23:32;20.90;;;15.40;;
17424;SDS011;8830;50.978;5.058;2022-11-20T03:26:12;18.70;;;15.80;;
17424;SDS011;8830;50.978;5.058;2022-11-20T03:28:41;20.20;;;15.77;;
17424;SDS011;8830;50.978;5.058;2022-11-20T03:31:14;21.17;;;15.73;;
17424;SDS011;8830;50.978;5.058;2022-11-20T03:33:42;18.87;;;15.33;;
17424;SDS011;8830;50.978;5.058;2022-11-20T03:36:11;21.60;;;16.87;;
17424;SDS011;8830;50.978;5.058;2022-11-20T03:38:40;21.77;;;15.77;;
17424;SDS011;8830;50.978;5.058;2022-11-20T03:41:09;17.17;;;15.17;;
17424;SDS011;8830;50.978;5.058;2022-11-20T03:43:37;21.17;;;16.97;;
17424;SDS011;8830;50.978;5.058;2022-11-20T03:46:05;22.03;;;16.43;;
17424;SDS011;8830;50.978;5.058;2022-11-20T03:48:34;20.20;;;16.37;;
17424;SDS011;8830;50.978;5.058;2022-11-20T03:51:10;21.50;;;16.90;;
17424;SDS011;8830;50.978;5.058;2022-11-20T03:53:39;24.23;;;16.90;;
17424;SDS011;8830;50.978;5.058;2022-11-20T03:56:07;23.20;;;17.07;;
17424;SDS011;8830;50.978;5.058;2022-11-20T03:58:36;27.27;;;17.13;;
17424;SDS011;8830;50.978;5.058;2022-11-20T04:01:08;21.80;;;17.43;;
17424;SDS011;8830;50.978;5.058;2022-11-20T04:03:39;26.00;;;18.00;;
17424;SDS011;8830;50.978;5.058;2022-11-20T04:06:07;25.17;;;17.90;;
17424;SDS011;8830;50.978;5.058;2022-11-20T04:08:36;25.23;;;17.77;;
17424;SDS011;8830;50.978;5.058;2022-11-20T04:11:10;26.40;;;17.20;;
17424;SDS011;8830;50.978;5.058;2022-11-20T04:13:38;23.13;;;16.80;;
17424;SDS011;8830;50.978;5.058;2022-11-20T04:16:06;24.13;;;17.17;;
17424;SDS011;8830;50.978;5.058;2022-11-20T04:18:34;22.80;;;17.80;;
17424;SDS011;8830;50.978;5.058;2022-11-20T04:21:03;27.03;;;18.43;;
17424;SDS011;8830;50.978;5.058;2022-11-20T04:23:31;25.90;;;19.23;;
17424;SDS011;8830;50.978;5.058;2022-11-20T04:26:02;21.70;;;17.80;;
17424;SDS011;8830;50.978;5.058;2022-11-20T04:28:30;24.47;;;16.50;;
17424;SDS011;8830;50.978;5.058;2022-11-20T04:31:03;25.33;;;17.53;;
17424;SDS011;8830;50.978;5.058;2022-11-20T04:33:31;27.27;;;17.97;;
17424;SDS011;8830;50.978;5.058;2022-11-20T04:36:00;29.07;;;18.37;;
17424;SDS011;8830;50.978;5.058;2022-11-20T04:38:32;28.03;;;18.43;;
17424;SDS011;8830;50.978;5.058;2022-11-20T04:41:00;26.33;;;18.60;;
17424;SDS011;8830;50.978;5.058;2022-11-20T04:43:28;28.93;;;18.23;;
17424;SDS011;8830;50.978;5.058;2022-11-20T04:45:56;26.50;;;19.10;;
17424;SDS011;8830;50.978;5.058;2022-11-20T04:48:25;27.23;;;19.43;;
17424;SDS011;8830;50.978;5.058;2022-11-20T04:50:53;31.50;;;18.93;;
17424;SDS011;8830;50.978;5.058;2022-11-20T04:53:21;27.47;;;18.73;;
17424;SDS011;8830;50.978;5.058;2022-11-20T04:55:49;29.93;;;19.90;;
17424;SDS011;8830;50.978;5.058;2022-11-20T04:58:16;29.87;;;18.57;;
17424;SDS011;8830;50.978;5.058;2022-11-20T05:00:43;34.00;;;20.43;;
17424;SDS011;8830;50.978;5.058;2022-11-20T05:03:10;32.27;;;20.70;;
17424;SDS011;8830;50.978;5.058;2022-11-20T05:05:37;29.23;;;20.40;;
17424;SDS011;8830;50.978;5.058;2022-11-20T05:08:04;31.80;;;21.13;;
17424;SDS011;8830;50.978;5.058;2022-11-20T05:10:32;29.87;;;20.50;;
17424;SDS011;8830;50.978;5.058;2022-11-20T05:12:59;32.13;;;21.33;;
17424;SDS011;8830;50.978;5.058;2022-11-20T05:15:26;31.77;;;20.43;;
17424;SDS011;8830;50.978;5.058;2022-11-20T05:17:52;35.27;;;21.07;;
17424;SDS011;8830;50.978;5.058;2022-11-20T05:20:19;34.17;;;21.70;;
17424;SDS011;8830;50.978;5.058;2022-11-20T05:22:46;34.67;;;20.70;;
17424;SDS011;8830;50.978;5.058;2022-11-20T05:25:14;32.70;;;20.70;;
17424;SDS011;8830;50.978;5.058;2022-11-20T05:27:42;37.13;;;22.60;;
17424;SDS011;8830;50.978;5.058;2022-11-20T05:30:10;32.07;;;21.90;;
17424;SDS011;8830;50.978;5.058;2022-11-20T05:32:39;33.57;;;21.03;;
17424;SDS011;8830;50.978;5.058;2022-11-20T05:35:06;33.50;;;20.13;;
17424;SDS011;8830;50.978;5.058;2022-11-20T05:37:33;33.93;;;20.83;;
17424;SDS011;8830;50.978;5.058;2022-11-20T05:40:00;35.43;;;21.47;;
17424;SDS011;8830;50.978;5.058;2022-11-20T05:42:29;36.20;;;21.37;;
17424;SDS011;8830;50.978;5.058;2022-11-20T05:44:58;33.00;;;20.70;;
17424;SDS011;8830;50.978;5.058;2022-11-20T05:47:25;33.60;;;21.43;;
17424;SDS011;8830;50.978;5.058;2022-11-20T05:49:52;34.37;;;20.93;;
17424;SDS011;8830;50.978;5.058;2022-11-20T05:52:19;34.20;;;21.07;;
17424;SDS011;8830;50.978;5.058;2022-11-20T05:54:46;34.07;;;21.33;;
17424;SDS011;8830;50.978;5.058;2022-11-20T05:57:13;36.73;;;21.97;;
17424;SDS011;8830;50.978;5.058;2022-11-20T05:59:40;33.33;;;21.37;;
17424;SDS011;8830;50.978;5.058;2022-11-20T06:02:09;35.97;;;21.33;;
17424;SDS011;8830;50.978;5.058;2022-11-20T06:04:36;40.30;;;22.50;;
17424;SDS011;8830;50.978;5.058;2022-11-20T06:07:04;37.47;;;21.17;;
17424;SDS011;8830;50.978;5.058;2022-11-20T06:09:31;36.67;;;21.27;;
17424;SDS011;8830;50.978;5.058;2022-11-20T06:11:58;39.87;;;22.40;;
17424;SDS011;8830;50.978;5.058;2022-11-20T06:14:26;38.07;;;21.77;;
17424;SDS011;8830;50.978;5.058;2022-11-20T06:16:53;35.03;;;22.67;;
17424;SDS011;8830;50.978;5.058;2022-11-20T06:19:21;37.90;;;23.00;;
17424;SDS011;8830;50.978;5.058;2022-11-20T06:21:49;36.30;;;21.30;;
17424;SDS011;8830;50.978;5.058;2022-11-20T06:24:16;38.30;;;23.23;;
17424;SDS011;8830;50.978;5.058;2022-11-20T06:26:45;37.73;;;22.80;;
17424;SDS011;8830;50.978;5.058;2022-11-20T06:29:11;45.20;;;23.97;;
17424;SDS011;8830;50.978;5.058;2022-11-20T06:31:38;44.00;;;23.90;;
17424;SDS011;8830;50.978;5.058;2022-11-20T06:34:07;40.10;;;23.63;;
17424;SDS011;8830;50.978;5.058;2022-11-20T06:36:37;44.63;;;24.53;;
17424;SDS011;8830;50.978;5.058;2022-11-20T06:39:04;38.30;;;23.77;;
17424;SDS011;8830;50.978;5.058;2022-11-20T06:41:30;43.40;;;24.63;;
17424;SDS011;8830;50.978;5.058;2022-11-20T06:43:59;39.47;;;24.33;;
17424;SDS011;8830;50.978;5.058;2022-11-20T06:46:26;44.47;;;25.60;;
17424;SDS011;8830;50.978;5.058;2022-11-20T06:48:54;44.33;;;25.00;;
17424;SDS011;8830;50.978;5.058;2022-11-20T06:51:21;46.13;;;24.57;;
17424;SDS011;8830;50.978;5.058;2022-11-20T06:53:50;41.87;;;24.03;;
17424;SDS011;8830;50.978;5.058;2022-11-20T06:56:16;40.33;;;23.97;;
17424;SDS011;8830;50.978;5.058;2022-11-20T06:58:44;36.67;;;23.23;;
17424;SDS011;8830;50.978;5.058;2022-11-20T07:01:12;40.37;;;24.73;;
17424;SDS011;8830;50.978;5.058;2022-11-20T07:03:40;43.57;;;24.60;;
17424;SDS011;8830;50.978;5.058;2022-11-20T07:06:08;44.47;;;24.37;;
17424;SDS011;8830;50.978;5.058;2022-11-20T07:08:36;40.60;;;24.20;;
17424;SDS011;8830;50.978;5.058;2022-11-20T07:11:06;47.07;;;25.67;;
17424;SDS011;8830;50.978;5.058;2022-11-20T07:13:36;45.27;;;25.57;;
17424;SDS011;8830;50.978;5.058;2022-11-20T07:16:04;38.10;;;23.63;;
17424;SDS011;8830;50.978;5.058;2022-11-20T07:18:33;41.27;;;23.90;;
17424;SDS011;8830;50.978;5.058;2022-11-20T07:21:01;43.63;;;24.37;;
17424;SDS011;8830;50.978;5.058;2022-11-20T07:23:29;45.50;;;25.47;;
17424;SDS011;8830;50.978;5.058;2022-11-20T07:25:56;47.43;;;25.43;;
17424;SDS011;8830;50.978;5.058;2022-11-20T07:28:25;48.90;;;26.70;;
17424;SDS011;8830;50.978;5.058;2022-11-20T07:30:53;44.43;;;23.77;;
17424;SDS011;8830;50.978;5.058;2022-11-20T07:33:20;42.97;;;23.70;;
17424;SDS011;8830;50.978;5.058;2022-11-20T07:35:47;49.93;;;25.33;;
17424;SDS011;8830;50.978;5.058;2022-11-20T07:38:14;45.10;;;25.83;;
17424;SDS011;8830;50.978;5.058;2022-11-20T07:40:41;49.07;;;24.63;;
17424;SDS011;8830;50.978;5.058;2022-11-20T07:43:10;45.37;;;24.97;;
17424;SDS011;8830;50.978;5.058;2022-11-20T07:45:40;40.97;;;23.73;;
17424;SDS011;8830;50.978;5.058;2022-11-20T07:48:07;42.50;;;23.70;;
17424;SDS011;8830;50.978;5.058;2022-11-20T07:50:34;39.00;;;23.43;;
17424;SDS011;8830;50.978;5.058;2022-11-20T07:53:03;37.97;;;23.43;;
17424;SDS011;8830;50.978;5.058;2022-11-20T07:55:42;41.13;;;24.27;;
17424;SDS011;8830;50.978;5.058;2022-11-20T08:01:34;38.20;;;22.03;;
17424;SDS011;8830;50.978;5.058;2022-11-20T08:04:02;39.57;;;22.90;;
17424;SDS011;8830;50.978;5.058;2022-11-20T08:06:31;40.53;;;23.30;;
17424;SDS011;8830;50.978;5.058;2022-11-20T08:08:58;36.33;;;21.47;;
17424;SDS011;8830;50.978;5.058;2022-11-20T08:14:47;41.10;;;23.70;;
17424;SDS011;8830;50.978;5.058;2022-11-20T08:20:38;44.33;;;23.43;;
17424;SDS011;8830;50.978;5.058;2022-11-20T08:26:29;41.67;;;23.07;;
17424;SDS011;8830;50.978;5.058;2022-11-20T08:28:57;42.70;;;23.13;;
17424;SDS011;8830;50.978;5.058;2022-11-20T08:31:25;36.47;;;21.97;;
17424;SDS011;8830;50.978;5.058;2022-11-20T08:33:53;33.23;;;22.27;;
17424;SDS011;8830;50.978;5.058;2022-11-20T08:36:22;39.67;;;23.37;;
17424;SDS011;8830;50.978;5.058;2022-11-20T08:38:49;46.43;;;23.77;;
17424;SDS011;8830;50.978;5.058;2022-11-20T08:41:18;37.40;;;23.80;;
17424;SDS011;8830;50.978;5.058;2022-11-20T08:43:53;40.40;;;23.73;;
17424;SDS011;8830;50.978;5.058;2022-11-20T08:46:24;37.20;;;22.73;;
17424;SDS011;8830;50.978;5.058;2022-11-20T08:48:53;42.07;;;23.40;;
17424;SDS011;8830;50.978;5.058;2022-11-20T08:51:21;42.50;;;23.87;;
17424;SDS011;8830;50.978;5.058;2022-11-20T08:53:48;37.70;;;23.03;;
17424;SDS011;8830;50.978;5.058;2022-11-20T08:56:15;41.63;;;23.27;;
17424;SDS011;8830;50.978;5.058;2022-11-20T08:58:43;38.70;;;23.07;;
17424;SDS011;8830;50.978;5.058;2022-11-20T09:01:10;45.37;;;24.63;;
17424;SDS011;8830;50.978;5.058;2022-11-20T09:03:37;40.17;;;24.33;;
17424;SDS011;8830;50.978;5.058;2022-11-20T09:06:06;40.00;;;23.63;;
17424;SDS011;8830;50.978;5.058;2022-11-20T09:08:36;40.83;;;23.40;;
17424;SDS011;8830;50.978;5.058;2022-11-20T09:11:03;42.23;;;24.77;;
17424;SDS011;8830;50.978;5.058;2022-11-20T09:13:31;42.70;;;24.53;;
17424;SDS011;8830;50.978;5.058;2022-11-20T09:16:00;43.90;;;23.73;;
17424;SDS011;8830;50.978;5.058;2022-11-20T09:18:31;49.03;;;25.17;;
17424;SDS011;8830;50.978;5.058;2022-11-20T09:20:59;47.90;;;26.00;;
17424;SDS011;8830;50.978;5.058;2022-11-20T09:23:33;52.23;;;24.77;;
17424;SDS011;8830;50.978;5.058;2022-11-20T09:26:04;53.40;;;24.63;;
17424;SDS011;8830;50.978;5.058;2022-11-20T09:28:32;49.97;;;25.27;;
17424;SDS011;8830;50.978;5.058;2022-11-20T09:30:59;53.87;;;25.40;;
17424;SDS011;8830;50.978;5.058;2022-11-20T09:33:26;47.53;;;24.73;;
17424;SDS011;8830;50.978;5.058;2022-11-20T09:35:53;48.60;;;24.00;;
17424;SDS011;8830;50.978;5.058;2022-11-20T09:38:20;49.87;;;25.77;;
17424;SDS011;8830;50.978;5.058;2022-11-20T09:40:50;48.13;;;25.50;;
17424;SDS011;8830;50.978;5.058;2022-11-20T09:43:24;52.23;;;25.47;;
17424;SDS011;8830;50.978;5.058;2022-11-20T09:46:02;50.60;;;24.30;;
17424;SDS011;8830;50.978;5.058;2022-11-20T09:48:36;50.90;;;26.83;;
17424;SDS011;8830;50.978;5.058;2022-11-20T09:51:20;46.70;;;25.10;;
17424;SDS011;8830;50.978;5.058;2022-11-20T09:54:00;55.57;;;26.43;;
17424;SDS011;8830;50.978;5.058;2022-11-20T09:56:37;46.97;;;24.67;;
17424;SDS011;8830;50.978;5.058;2022-11-20T09:59:12;64.00;;;26.00;;
17424;SDS011;8830;50.978;5.058;2022-11-20T10:01:47;51.27;;;24.40;;
17424;SDS011;8830;50.978;5.058;2022-11-20T10:04:15;56.57;;;24.20;;
17424;SDS011;8830;50.978;5.058;2022-11-20T10:06:47;53.67;;;26.07;;
17424;SDS011;8830;50.978;5.058;2022-11-20T10:09:23;56.57;;;24.40;;
17424;SDS011;8830;50.978;5.058;2022-11-20T10:11:58;55.83;;;24.80;;
17424;SDS011;8830;50.978;5.058;2022-11-20T10:14:43;56.40;;;24.40;;
17424;SDS011;8830;50.978;5.058;2022-11-20T10:17:20;58.23;;;25.17;;
17424;SDS011;8830;50.978;5.058;2022-11-20T10:20:00;57.30;;;25.40;;
17424;SDS011;8830;50.978;5.058;2022-11-20T10:22:40;51.03;;;24.93;;
17424;SDS011;8830;50.978;5.058;2022-11-20T10:25:14;54.53;;;25.27;;
17424;SDS011;8830;50.978;5.058;2022-11-20T10:27:48;55.70;;;24.27;;
17424;SDS011;8830;50.978;5.058;2022-11-20T10:30:33;54.97;;;24.53;;
17424;SDS011;8830;50.978;5.058;2022-11-20T10:33:04;55.43;;;24.80;;
17424;SDS011;8830;50.978;5.058;2022-11-20T10:35:37;57.63;;;24.67;;
17424;SDS011;8830;50.978;5.058;2022-11-20T10:38:08;55.83;;;25.93;;
17424;SDS011;8830;50.978;5.058;2022-11-20T10:40:43;52.17;;;24.57;;
17424;SDS011;8830;50.978;5.058;2022-11-20T10:43:15;53.13;;;24.60;;
17424;SDS011;8830;50.978;5.058;2022-11-20T10:45:48;51.60;;;24.27;;
17424;SDS011;8830;50.978;5.058;2022-11-20T10:48:21;55.30;;;26.07;;
17424;SDS011;8830;50.978;5.058;2022-11-20T10:50:57;56.27;;;26.53;;
17424;SDS011;8830;50.978;5.058;2022-11-20T10:53:50;58.30;;;26.40;;
17424;SDS011;8830;50.978;5.058;2022-11-20T10:56:32;56.70;;;26.13;;
17424;SDS011;8830;50.978;5.058;2022-11-20T10:59:11;53.23;;;24.93;;
17424;SDS011;8830;50.978;5.058;2022-11-20T11:02:15;52.10;;;23.87;;
17424;SDS011;8830;50.978;5.058;2022-11-20T11:04:45;57.80;;;25.43;;
17424;SDS011;8830;50.978;5.058;2022-11-20T11:07:15;52.60;;;24.70;;
17424;SDS011;8830;50.978;5.058;2022-11-20T11:09:46;56.60;;;25.13;;
17424;SDS011;8830;50.978;5.058;2022-11-20T11:12:16;50.37;;;24.03;;
17424;SDS011;8830;50.978;5.058;2022-11-20T11:14:45;58.53;;;25.43;;
17424;SDS011;8830;50.978;5.058;2022-11-20T11:17:23;49.60;;;25.00;;
17424;SDS011;8830;50.978;5.058;2022-11-20T11:22:44;58.17;;;24.87;;
17424;SDS011;8830;50.978;5.058;2022-11-20T11:25:20;53.93;;;25.00;;
17424;SDS011;8830;50.978;5.058;2022-11-20T11:27:52;57.70;;;25.33;;
17424;SDS011;8830;50.978;5.058;2022-11-20T11:30:21;44.97;;;24.00;;
17424;SDS011;8830;50.978;5.058;2022-11-20T11:32:51;51.40;;;23.80;;
17424;SDS011;8830;50.978;5.058;2022-11-20T11:35:30;49.20;;;23.77;;
17424;SDS011;8830;50.978;5.058;2022-11-20T11:38:02;49.70;;;24.53;;
17424;SDS011;8830;50.978;5.058;2022-11-20T11:40:32;45.77;;;23.63;;
17424;SDS011;8830;50.978;5.058;2022-11-20T11:43:02;50.50;;;23.33;;
17424;SDS011;8830;50.978;5.058;2022-11-20T11:45:53;47.57;;;23.87;;
17424;SDS011;8830;50.978;5.058;2022-11-20T11:48:22;47.27;;;23.53;;
17424;SDS011;8830;50.978;5.058;2022-11-20T11:50:49;44.23;;;23.97;;
17424;SDS011;8830;50.978;5.058;2022-11-20T11:53:17;49.73;;;23.40;;
17424;SDS011;8830;50.978;5.058;2022-11-20T11:55:47;58.37;;;24.13;;
17424;SDS011;8830;50.978;5.058;2022-11-20T11:58:20;45.47;;;23.20;;
17424;SDS011;8830;50.978;5.058;2022-11-20T12:01:02;45.90;;;23.37;;
17424;SDS011;8830;50.978;5.058;2022-11-20T12:03:42;38.33;;;21.60;;
17424;SDS011;8830;50.978;5.058;2022-11-20T12:06:14;40.27;;;21.07;;
17424;SDS011;8830;50.978;5.058;2022-11-20T12:08:44;41.27;;;21.37;;
17424;SDS011;8830;50.978;5.058;2022-11-20T12:11:19;39.53;;;20.70;;
17424;SDS011;8830;50.978;5.058;2022-11-20T12:13:52;40.37;;;20.43;;
17424;SDS011;8830;50.978;5.058;2022-11-20T12:16:22;33.77;;;18.30;;
17424;SDS011;8830;50.978;5.058;2022-11-20T12:18:51;31.93;;;18.00;;
17424;SDS011;8830;50.978;5.058;2022-11-20T12:21:22;29.00;;;16.20;;
17424;SDS011;8830;50.978;5.058;2022-11-20T12:24:04;26.60;;;13.83;;
17424;SDS011;8830;50.978;5.058;2022-11-20T12:26:47;21.53;;;13.03;;
17424;SDS011;8830;50.978;5.058;2022-11-20T12:29:26;20.33;;;11.13;;
17424;SDS011;8830;50.978;5.058;2022-11-20T12:32:17;11.53;;;7.53;;
17424;SDS011;8830;50.978;5.058;2022-11-20T12:35:03;7.73;;;5.47;;
17424;SDS011;8830;50.978;5.058;2022-11-20T12:37:38;5.23;;;3.60;;
17424;SDS011;8830;50.978;5.058;2022-11-20T12:43:05;6.77;;;3.60;;
17424;SDS011;8830;50.978;5.058;2022-11-20T12:46:18;7.97;;;2.73;;
17424;SDS011;8830;50.978;5.058;2022-11-20T12:48:58;4.67;;;2.30;;
17424;SDS011;8830;50.978;5.058;2022-11-20T12:51:37;3.63;;;1.70;;
17424;SDS011;8830;50.978;5.058;2022-11-20T12:54:25;3.17;;;1.80;;
17424;SDS011;8830;50.978;5.058;2022-11-20T12:57:04;4.50;;;2.33;;
17424;SDS011;8830;50.978;5.058;2022-11-20T12:59:44;3.87;;;1.63;;
17424;SDS011;8830;50.978;5.058;2022-11-20T13:02:23;4.00;;;1.73;;
17424;SDS011;8830;50.978;5.058;2022-11-20T13:05:07;3.80;;;1.70;;
17424;SDS011;8830;50.978;5.058;2022-11-20T13:07:45;3.87;;;1.70;;
17424;SDS011;8830;50.978;5.058;2022-11-20T13:10:14;5.60;;;1.60;;
17424;SDS011;8830;50.978;5.058;2022-11-20T13:12:49;4.57;;;1.93;;
17424;SDS011;8830;50.978;5.058;2022-11-20T13:15:26;9.33;;;2.13;;
17424;SDS011;8830;50.978;5.058;2022-11-20T13:18:02;2.83;;;1.73;;
17424;SDS011;8830;50.978;5.058;2022-11-20T13:20:31;6.80;;;2.00;;
17424;SDS011;8830;50.978;5.058;2022-11-20T13:23:06;12.47;;;7.70;;
17424;SDS011;8830;50.978;5.058;2022-11-20T13:25:33;8.67;;;6.73;;
17424;SDS011;8830;50.978;5.058;2022-11-20T13:28:03;5.77;;;2.83;;
17424;SDS011;8830;50.978;5.058;2022-11-20T13:30:31;5.93;;;2.43;;
17424;SDS011;8830;50.978;5.058;2022-11-20T13:33:02;3.30;;;1.83;;
17424;SDS011;8830;50.978;5.058;2022-11-20T13:35:33;4.83;;;2.40;;
17424;SDS011;8830;50.978;5.058;2022-11-20T13:38:05;3.83;;;2.17;;
17424;SDS011;8830;50.978;5.058;2022-11-20T13:40:34;7.17;;;2.43;;
17424;SDS011;8830;50.978;5.058;2022-11-20T13:43:18;5.27;;;2.30;;
17424;SDS011;8830;50.978;5.058;2022-11-20T13:45:56;9.47;;;4.00;;
17424;SDS011;8830;50.978;5.058;2022-11-20T13:48:24;7.17;;;2.30;;
17424;SDS011;8830;50.978;5.058;2022-11-20T13:50:58;4.93;;;2.20;;
17424;SDS011;8830;50.978;5.058;2022-11-20T13:56:48;6.37;;;4.20;;
17424;SDS011;8830;50.978;5.058;2022-11-20T13:59:33;11.23;;;4.43;;
17424;SDS011;8830;50.978;5.058;2022-11-20T14:02:10;7.23;;;3.00;;
17424;SDS011;8830;50.978;5.058;2022-11-20T14:04:41;6.47;;;2.73;;
17424;SDS011;8830;50.978;5.058;2022-11-20T14:07:11;6.10;;;2.50;;
17424;SDS011;8830;50.978;5.058;2022-11-20T14:09:48;4.63;;;2.57;;
17424;SDS011;8830;50.978;5.058;2022-11-20T14:12:17;5.17;;;2.50;;
17424;SDS011;8830;50.978;5.058;2022-11-20T14:14:49;4.40;;;2.20;;
17424;SDS011;8830;50.978;5.058;2022-11-20T14:17:18;7.57;;;3.20;;
17424;SDS011;8830;50.978;5.058;2022-11-20T14:19:46;4.97;;;3.30;;
17424;SDS011;8830;50.978;5.058;2022-11-20T14:22:19;6.10;;;3.10;;
17424;SDS011;8830;50.978;5.058;2022-11-20T14:24:49;4.07;;;2.90;;
17424;SDS011;8830;50.978;5.058;2022-11-20T14:27:27;4.70;;;2.10;;
17424;SDS011;8830;50.978;5.058;2022-11-20T14:29:54;4.03;;;2.00;;
17424;SDS011;8830;50.978;5.058;2022-11-20T14:32:22;5.03;;;2.30;;
17424;SDS011;8830;50.978;5.058;2022-11-20T14:34:54;6.23;;;2.20;;
17424;SDS011;8830;50.978;5.058;2022-11-20T14:37:30;2.57;;;2.10;;
17424;SDS011;8830;50.978;5.058;2022-11-20T14:42:47;2.43;;;1.97;;
17424;SDS011;8830;50.978;5.058;2022-11-20T14:45:15;4.17;;;1.80;;
17424;SDS011;8830;50.978;5.058;2022-11-20T14:47:42;8.20;;;1.97;;
17424;SDS011;8830;50.978;5.058;2022-11-20T14:50:12;4.77;;;2.30;;
17424;SDS011;8830;50.978;5.058;2022-11-20T14:52:49;4.80;;;1.70;;
17424;SDS011;8830;50.978;5.058;2022-11-20T14:55:26;2.67;;;2.07;;
17424;SDS011;8830;50.978;5.058;2022-11-20T14:57:58;4.23;;;2.27;;
17424;SDS011;8830;50.978;5.058;2022-11-20T15:00:27;3.67;;;1.87;;
17424;SDS011;8830;50.978;5.058;2022-11-20T15:02:56;5.47;;;1.87;;
17424;SDS011;8830;50.978;5.058;2022-11-20T15:05:24;3.47;;;2.03;;
17424;SDS011;8830;50.978;5.058;2022-11-20T15:08:03;3.97;;;2.13;;
17424;SDS011;8830;50.978;5.058;2022-11-20T15:10:33;4.80;;;2.50;;
17424;SDS011;8830;50.978;5.058;2022-11-20T15:13:02;5.60;;;2.40;;
17424;SDS011;8830;50.978;5.058;2022-11-20T15:15:32;3.53;;;2.60;;
17424;SDS011;8830;50.978;5.058;2022-11-20T15:18:02;4.17;;;2.27;;
17424;SDS011;8830;50.978;5.058;2022-11-20T15:20:30;5.73;;;2.70;;
17424;SDS011;8830;50.978;5.058;2022-11-20T15:22:58;3.87;;;2.20;;
17424;SDS011;8830;50.978;5.058;2022-11-20T15:25:26;6.00;;;2.33;;